createdAt,value
2023-08-06T00:00:12.592Z,95462.34
2023-08-06T00:02:40.199Z,95463.31
2023-08-06T00:05:08.508Z,95460.97
2023-08-06T00:07:36.110Z,95460.63
2023-08-06T00:10:03.762Z,95457.66
2023-08-06T00:12:31.312Z,95467.09
2023-08-06T00:15:00.245Z,95464.81
2023-08-06T00:17:29.853Z,95452.63
2023-08-06T00:19:57.557Z,95442.50
2023-08-06T00:22:29.388Z,95467.84
2023-08-06T00:24:58.597Z,95480.03
2023-08-06T00:27:26.198Z,95481.31
2023-08-06T00:29:53.936Z,95482.03
2023-08-06T00:32:22.898Z,95474.25
2023-08-06T00:34:51.216Z,95478.81
2023-08-06T00:37:18.890Z,95478.56
2023-08-06T00:39:46.983Z,95488.34
2023-08-06T00:42:14.570Z,95486.31
2023-08-06T00:44:42.152Z,95487.13
2023-08-06T00:47:10.198Z,95485.09
2023-08-06T00:49:39.191Z,95491.50
2023-08-06T00:52:08.920Z,95483.47
2023-08-06T00:54:37.150Z,95491.28
2023-08-06T00:57:05.891Z,95487.81
2023-08-06T00:59:34.020Z,95490.69
2023-08-06T01:02:01.944Z,95486.16
2023-08-06T01:04:29.480Z,95492.94
2023-08-06T01:07:06.419Z,95493.56
2023-08-06T01:09:43.396Z,95502.19
2023-08-06T01:12:20.827Z,95497.03
2023-08-06T01:14:57.440Z,95498.66
2023-08-06T01:17:27.655Z,95492.63
2023-08-06T01:19:55.309Z,95480.94
2023-08-06T01:22:24.291Z,95483.28
2023-08-06T01:24:53.060Z,95477.34
2023-08-06T01:27:28.743Z,95478.19
2023-08-06T01:30:02.492Z,95465.41
2023-08-06T01:32:34.010Z,95461.94
2023-08-06T01:35:02.530Z,95467.09
2023-08-06T01:37:31.931Z,95473.22
2023-08-06T01:39:59.550Z,95470.16
2023-08-06T01:42:27.187Z,95466.66
2023-08-06T01:44:54.752Z,95459.25
2023-08-06T01:47:22.305Z,95452.28
2023-08-06T01:49:49.859Z,95453.09
2023-08-06T01:52:17.410Z,95450.25
2023-08-06T01:54:46.296Z,95435.00
2023-08-06T01:57:13.852Z,95432.94
2023-08-06T01:59:41.627Z,95432.56
2023-08-06T02:02:09.381Z,95434.63
2023-08-06T02:04:37.144Z,95431.84
2023-08-06T02:07:04.975Z,95430.25
2023-08-06T02:09:32.786Z,95436.88
2023-08-06T02:12:01.650Z,95428.84
2023-08-06T02:14:29.172Z,95417.53
2023-08-06T02:16:56.702Z,95408.06
2023-08-06T02:19:24.415Z,95391.81
2023-08-06T02:21:52.204Z,95386.41
2023-08-06T02:24:20.066Z,95389.66
2023-08-06T02:26:49.668Z,95391.59
2023-08-06T02:29:18.870Z,95384.41
2023-08-06T02:31:46.479Z,95389.66
2023-08-06T02:34:14.052Z,95392.31
2023-08-06T02:36:41.591Z,95383.75
2023-08-06T02:39:09.148Z,95375.25
2023-08-06T02:41:36.697Z,95371.97
2023-08-06T02:44:04.268Z,95366.78
2023-08-06T02:46:33.165Z,95370.50
2023-08-06T02:49:00.716Z,95374.78
2023-08-06T02:51:28.301Z,95373.75
2023-08-06T02:53:55.881Z,95368.72
2023-08-06T02:56:23.501Z,95374.28
2023-08-06T02:58:51.254Z,95370.44
2023-08-06T03:01:18.794Z,95366.13
2023-08-06T03:03:47.783Z,95371.84
2023-08-06T03:06:14.612Z,95387.19
2023-08-06T03:08:42.254Z,95387.13
2023-08-06T03:11:09.799Z,95368.41
2023-08-06T03:13:37.329Z,95371.59
2023-08-06T03:16:05.146Z,95378.97
2023-08-06T03:18:32.737Z,95377.28
2023-08-06T03:21:01.668Z,95380.28
2023-08-06T03:23:29.226Z,95389.00
2023-08-06T03:25:56.799Z,95391.22
2023-08-06T03:28:24.575Z,95378.59
2023-08-06T03:31:01.337Z,95378.75
2023-08-06T03:33:29.140Z,95372.69
2023-08-06T03:35:57.231Z,95373.16
2023-08-06T03:38:26.137Z,95361.84
2023-08-06T03:40:53.842Z,95369.44
2023-08-06T03:43:21.590Z,95358.00
2023-08-06T03:45:49.132Z,95361.41
2023-08-06T03:48:16.667Z,95362.28
2023-08-06T03:50:44.349Z,95361.84
2023-08-06T03:53:11.879Z,95366.59
2023-08-06T03:55:40.766Z,95373.28
2023-08-06T03:58:08.314Z,95366.75
2023-08-06T04:00:35.933Z,95377.28
2023-08-06T04:03:03.700Z,95369.69
2023-08-06T04:05:33.621Z,95382.59
2023-08-06T04:08:01.363Z,95371.81
2023-08-06T04:10:28.938Z,95384.63
2023-08-06T04:12:57.813Z,95379.13
2023-08-06T04:15:25.381Z,95380.97
2023-08-06T04:17:52.971Z,95380.59
2023-08-06T04:20:20.582Z,95374.97
2023-08-06T04:22:48.142Z,95371.84
2023-08-06T04:25:15.870Z,95356.94
2023-08-06T04:27:43.526Z,95353.63
2023-08-06T04:30:13.625Z,95362.59
2023-08-06T04:32:41.451Z,95365.91
2023-08-06T04:35:09.274Z,95368.44
2023-08-06T04:37:36.808Z,95377.19
2023-08-06T04:40:04.766Z,95370.44
2023-08-06T04:42:32.411Z,95373.38
2023-08-06T04:44:59.963Z,95367.69
2023-08-06T04:47:28.920Z,95364.53
2023-08-06T04:49:56.506Z,95352.34
2023-08-06T04:52:24.179Z,95345.94
2023-08-06T04:54:51.826Z,95347.69
2023-08-06T04:57:19.416Z,95349.66
2023-08-06T04:59:46.961Z,95344.56
2023-08-06T05:02:14.648Z,95345.91
2023-08-06T05:04:43.604Z,95340.63
2023-08-06T05:07:12.740Z,95341.28
2023-08-06T05:09:40.967Z,95341.47
2023-08-06T05:12:09.302Z,95339.94
2023-08-06T05:14:36.856Z,95338.78
2023-08-06T05:17:05.688Z,95348.81
2023-08-06T05:19:33.272Z,95356.97
2023-08-06T05:22:03.071Z,95355.09
2023-08-06T05:24:30.612Z,95354.13
2023-08-06T05:26:58.143Z,95357.94
2023-08-06T05:29:25.726Z,95363.16
2023-08-06T05:31:53.591Z,95365.28
2023-08-06T05:34:21.328Z,95364.84
2023-08-06T05:36:48.894Z,95359.94
2023-08-06T05:39:17.771Z,95349.25
2023-08-06T05:41:45.338Z,95351.25
2023-08-06T05:44:12.914Z,95356.28
2023-08-06T05:46:40.467Z,95359.13
2023-08-06T05:49:08.032Z,95351.78
2023-08-06T05:51:35.571Z,95350.28
2023-08-06T05:54:03.125Z,95349.19
2023-08-06T05:56:31.996Z,95338.03
2023-08-06T05:58:59.560Z,95334.25
2023-08-06T06:01:27.161Z,95329.97
2023-08-06T06:03:54.761Z,95330.94
2023-08-06T06:06:22.320Z,95325.41
2023-08-06T06:08:49.889Z,95327.09
2023-08-06T06:11:17.444Z,95338.03
2023-08-06T06:13:46.319Z,95338.91
2023-08-06T06:16:13.922Z,95341.94
2023-08-06T06:18:41.505Z,95346.63
2023-08-06T06:21:09.175Z,95342.56
2023-08-06T06:23:36.698Z,95343.75
2023-08-06T06:26:04.314Z,95337.31
2023-08-06T06:28:31.875Z,95336.44
2023-08-06T06:31:04.371Z,95325.13
2023-08-06T06:33:31.970Z,95317.38
2023-08-06T06:35:59.540Z,95317.88
2023-08-06T06:38:27.072Z,95315.44
2023-08-06T06:40:57.618Z,95323.13
2023-08-06T06:43:25.750Z,95315.28
2023-08-06T06:45:58.420Z,95303.41
2023-08-06T06:48:27.968Z,95303.56
2023-08-06T06:50:55.486Z,95300.34
2023-08-06T06:53:27.993Z,95295.66
2023-08-06T06:55:55.581Z,95296.00
2023-08-06T06:58:23.274Z,95292.34
2023-08-06T07:00:51.363Z,95297.19
2023-08-06T07:03:19.241Z,95291.91
2023-08-06T07:05:48.333Z,95292.22
2023-08-06T07:08:15.884Z,95288.06
2023-08-06T07:10:44.143Z,95283.81
2023-08-06T07:13:12.341Z,95284.84
2023-08-06T07:15:39.891Z,95284.94
2023-08-06T07:18:07.418Z,95287.06
2023-08-06T07:20:35.408Z,95299.13
2023-08-06T07:23:05.112Z,95291.00
2023-08-06T07:25:34.089Z,95296.44
2023-08-06T07:28:03.337Z,95299.91
2023-08-06T07:30:30.882Z,95285.47
2023-08-06T07:32:58.424Z,95291.94
2023-08-06T07:35:26.026Z,95293.03
2023-08-06T07:37:55.640Z,95295.50
2023-08-06T07:40:24.610Z,95296.28
2023-08-06T07:42:52.208Z,95291.06
2023-08-06T07:45:19.777Z,95293.94
2023-08-06T07:47:47.357Z,95298.38
2023-08-06T07:50:15.760Z,95296.28
2023-08-06T07:52:43.276Z,95294.09
2023-08-06T07:55:10.816Z,95277.47
2023-08-06T07:57:39.718Z,95270.09
2023-08-06T08:00:08.564Z,95277.59
2023-08-06T08:02:36.142Z,95279.94
2023-08-06T08:05:03.698Z,95276.75
2023-08-06T08:07:31.737Z,95279.06
2023-08-06T08:09:59.250Z,95273.72
2023-08-06T08:12:26.838Z,95269.84
2023-08-06T08:14:55.702Z,95261.78
2023-08-06T08:17:23.250Z,95265.41
2023-08-06T08:19:50.832Z,95257.56
2023-08-06T08:22:18.352Z,95255.84
2023-08-06T08:24:45.876Z,95257.78
2023-08-06T08:27:13.457Z,95267.00
2023-08-06T08:29:40.970Z,95245.13
2023-08-06T08:32:10.115Z,95249.97
2023-08-06T08:34:37.632Z,95240.94
2023-08-06T08:37:07.194Z,95234.84
2023-08-06T08:39:34.748Z,95242.03
2023-08-06T08:42:03.346Z,95243.22
2023-08-06T08:44:33.207Z,95242.91
2023-08-06T08:47:01.682Z,95246.50
2023-08-06T08:49:32.525Z,95249.06
2023-08-06T08:52:01.665Z,95244.50
2023-08-06T08:54:30.675Z,95231.59
2023-08-06T08:56:58.509Z,95233.69
2023-08-06T08:59:26.092Z,95239.88
2023-08-06T09:01:55.658Z,95238.19
2023-08-06T09:04:24.555Z,95242.84
2023-08-06T09:06:56.698Z,95249.47
2023-08-06T09:09:28.206Z,95230.19
2023-08-06T09:12:01.847Z,95220.06
2023-08-06T09:14:29.399Z,95234.66
2023-08-06T09:16:57.320Z,95225.38
2023-08-06T09:19:24.926Z,95219.72
2023-08-06T09:21:55.465Z,95240.69
2023-08-06T09:24:23.359Z,95242.00
2023-08-06T09:26:50.991Z,95247.50
2023-08-06T09:29:18.574Z,95249.97
2023-08-06T09:31:47.939Z,95265.47
2023-08-06T09:34:18.299Z,95263.06
2023-08-06T09:36:49.044Z,95281.03
2023-08-06T09:39:19.330Z,95287.34
2023-08-06T09:41:49.202Z,95271.63
2023-08-06T09:44:20.565Z,95266.44
2023-08-06T09:46:52.395Z,95276.66
2023-08-06T09:49:23.536Z,95252.63
2023-08-06T09:51:56.796Z,95274.00
2023-08-06T09:54:28.328Z,95256.66
2023-08-06T09:56:56.626Z,95263.81
2023-08-06T09:59:25.227Z,95267.13
2023-08-06T10:01:54.014Z,95255.00
2023-08-06T10:04:24.949Z,95249.56
2023-08-06T10:06:54.548Z,95244.63
2023-08-06T10:09:23.039Z,95256.34
2023-08-06T10:11:54.093Z,95287.22
2023-08-06T10:14:26.375Z,95301.06
2023-08-06T10:16:54.015Z,95287.81
2023-08-06T10:19:22.689Z,95287.56
2023-08-06T10:22:13.218Z,95299.66
2023-08-06T10:24:54.520Z,95284.63
2023-08-06T10:27:25.350Z,95280.75
2023-08-06T10:29:52.968Z,95283.34
2023-08-06T10:32:20.676Z,95252.91
2023-08-06T10:34:58.954Z,95251.97
2023-08-06T10:37:36.313Z,95249.41
2023-08-06T10:40:04.898Z,95243.25
2023-08-06T10:42:33.851Z,95264.78
2023-08-06T10:45:15.156Z,95276.69
2023-08-06T10:47:44.505Z,95275.19
2023-08-06T10:50:17.436Z,95276.47
2023-08-06T10:52:45.712Z,95263.28
2023-08-06T10:55:13.737Z,95244.81
2023-08-06T10:57:42.646Z,95249.91
2023-08-06T11:00:16.854Z,95225.97
2023-08-06T11:02:49.568Z,95239.97
2023-08-06T11:05:17.455Z,95223.97
2023-08-06T11:07:45.418Z,95228.63
2023-08-06T11:10:14.685Z,95231.22
2023-08-06T11:12:43.760Z,95223.41
2023-08-06T11:15:12.768Z,95229.47
2023-08-06T11:17:42.794Z,95229.47
2023-08-06T11:20:11.479Z,95234.22
2023-08-06T11:22:39.822Z,95238.44
2023-08-06T11:25:09.017Z,95270.66
2023-08-06T11:27:36.588Z,95246.03
2023-08-06T11:30:06.664Z,95248.91
2023-08-06T11:32:36.270Z,95253.84
2023-08-06T11:35:11.916Z,95249.91
2023-08-06T11:37:41.994Z,95237.16
2023-08-06T11:40:12.177Z,95234.84
2023-08-06T11:42:39.955Z,95235.09
2023-08-06T11:45:10.619Z,95254.03
2023-08-06T11:47:40.615Z,95249.75
2023-08-06T11:50:08.906Z,95243.19
2023-08-06T11:52:36.438Z,95239.47
2023-08-06T11:55:07.611Z,95222.94
2023-08-06T11:57:36.278Z,95226.63
2023-08-06T12:00:05.063Z,95204.19
2023-08-06T12:02:38.091Z,95205.75
2023-08-06T12:05:11.756Z,95219.69
2023-08-06T12:07:40.851Z,95215.81
2023-08-06T12:10:09.133Z,95211.50
2023-08-06T12:12:37.981Z,95214.72
2023-08-06T12:15:07.223Z,95196.06
2023-08-06T12:17:36.514Z,95211.22
2023-08-06T12:20:05.802Z,95201.56
2023-08-06T12:22:36.191Z,95199.09
2023-08-06T12:25:07.786Z,95209.16
2023-08-06T12:27:35.346Z,95208.81
2023-08-06T12:30:03.053Z,95220.16
2023-08-06T12:32:30.721Z,95254.34
2023-08-06T12:34:59.829Z,95267.47
2023-08-06T12:37:27.532Z,95278.19
2023-08-06T12:39:55.166Z,95280.16
2023-08-06T12:42:22.801Z,95264.88
2023-08-06T12:44:51.314Z,95269.78
2023-08-06T12:47:19.293Z,95277.09
2023-08-06T12:49:46.873Z,95273.53
2023-08-06T12:52:16.426Z,95272.44
2023-08-06T12:54:44.473Z,95273.81
2023-08-06T12:57:12.043Z,95256.41
2023-08-06T12:59:40.807Z,95243.81
2023-08-06T13:02:08.611Z,95246.72
2023-08-06T13:04:36.164Z,95241.09
2023-08-06T13:07:03.735Z,95238.22
2023-08-06T13:09:33.378Z,95250.00
2023-08-06T13:12:06.097Z,95240.44
2023-08-06T13:14:34.128Z,95246.03
2023-08-06T13:17:01.717Z,95242.03
2023-08-06T13:19:30.126Z,95237.63
2023-08-06T13:22:04.143Z,95244.50
2023-08-06T13:24:33.511Z,95229.09
2023-08-06T13:27:01.077Z,95235.78
2023-08-06T13:29:28.989Z,95233.91
2023-08-06T13:31:56.653Z,95242.66
2023-08-06T13:34:24.280Z,95254.75
2023-08-06T13:36:52.045Z,95271.56
2023-08-06T13:39:20.766Z,95264.75
2023-08-06T13:41:49.630Z,95250.31
2023-08-06T13:44:17.203Z,95255.44
2023-08-06T13:46:44.793Z,95240.88
2023-08-06T13:49:12.497Z,95241.09
2023-08-06T13:51:40.175Z,95249.19
2023-08-06T13:54:07.889Z,95261.53
2023-08-06T13:56:37.684Z,95269.09
2023-08-06T13:59:07.485Z,95282.88
2023-08-06T14:01:48.254Z,95284.31
2023-08-06T14:04:19.855Z,95283.34
2023-08-06T14:06:47.385Z,95287.38
2023-08-06T14:09:19.414Z,95292.38
2023-08-06T14:11:47.122Z,95288.81
2023-08-06T14:14:16.036Z,95298.22
2023-08-06T14:16:43.601Z,95315.84
2023-08-06T14:19:11.146Z,95329.06
2023-08-06T14:21:38.853Z,95325.28
2023-08-06T14:24:06.677Z,95325.59
2023-08-06T14:26:34.228Z,95327.81
2023-08-06T14:29:02.665Z,95326.31
2023-08-06T14:31:31.656Z,95324.88
2023-08-06T14:33:59.206Z,95316.06
2023-08-06T14:36:28.057Z,95323.81
2023-08-06T14:39:00.214Z,95331.31
2023-08-06T14:41:28.423Z,95352.28
2023-08-06T14:43:55.996Z,95348.94
2023-08-06T14:46:23.772Z,95365.56
2023-08-06T14:48:52.762Z,95374.91
2023-08-06T14:51:21.472Z,95366.06
2023-08-06T14:53:49.361Z,95370.16
2023-08-06T14:56:16.907Z,95391.53
2023-08-06T14:58:44.560Z,95384.75
2023-08-06T15:01:12.250Z,95381.03
2023-08-06T15:03:39.861Z,95383.75
2023-08-06T15:06:08.846Z,95389.88
2023-08-06T15:08:36.428Z,95393.97
2023-08-06T15:11:04.060Z,95399.28
2023-08-06T15:13:31.847Z,95407.72
2023-08-06T15:16:01.302Z,95410.41
2023-08-06T15:18:28.861Z,95414.88
2023-08-06T15:20:56.382Z,95418.59
2023-08-06T15:23:25.495Z,95414.06
2023-08-06T15:25:53.067Z,95423.88
2023-08-06T15:28:20.630Z,95438.63
2023-08-06T15:30:51.556Z,95421.78
2023-08-06T15:33:19.859Z,95425.94
2023-08-06T15:35:47.498Z,95421.19
2023-08-06T15:38:15.380Z,95437.56
2023-08-06T15:40:46.143Z,95447.59
2023-08-06T15:43:13.678Z,95455.72
2023-08-06T15:45:41.267Z,95460.66
2023-08-06T15:48:10.099Z,95447.56
2023-08-06T15:50:38.788Z,95464.00
2023-08-06T15:53:06.362Z,95470.97
2023-08-06T15:55:34.534Z,95466.88
2023-08-06T15:58:03.436Z,95465.00
2023-08-06T16:00:31.019Z,95465.97
2023-08-06T16:02:58.606Z,95477.47
2023-08-06T16:05:26.424Z,95479.91
2023-08-06T16:07:54.132Z,95475.91
2023-08-06T16:10:21.645Z,95472.22
2023-08-06T16:12:49.174Z,95477.72
2023-08-06T16:15:20.288Z,95477.50
2023-08-06T16:17:48.247Z,95475.41
2023-08-06T16:20:16.054Z,95483.72
2023-08-06T16:22:44.336Z,95478.00
2023-08-06T16:25:13.799Z,95471.06
2023-08-06T16:27:41.419Z,95464.59
2023-08-06T16:30:09.895Z,95469.03
2023-08-06T16:32:39.291Z,95472.03
2023-08-06T16:35:08.008Z,95480.94
2023-08-06T16:37:35.712Z,95469.91
2023-08-06T16:40:04.842Z,95485.19
2023-08-06T16:42:32.396Z,95480.00
2023-08-06T16:44:59.943Z,95484.47
2023-08-06T16:47:27.497Z,95480.31
2023-08-06T16:49:56.558Z,95493.94
2023-08-06T16:52:24.116Z,95488.25
2023-08-06T16:54:51.773Z,95483.00
2023-08-06T16:57:19.321Z,95469.88
2023-08-06T16:59:46.890Z,95476.78
2023-08-06T17:02:14.454Z,95490.25
2023-08-06T17:04:42.126Z,95497.34
2023-08-06T17:07:11.168Z,95491.09
2023-08-06T17:09:38.723Z,95493.16
2023-08-06T17:12:07.099Z,95498.88
2023-08-06T17:14:34.671Z,95493.88
2023-08-06T17:17:02.221Z,95497.97
2023-08-06T17:19:29.795Z,95504.09
2023-08-06T17:21:57.358Z,95502.88
2023-08-06T17:24:26.196Z,95496.00
2023-08-06T17:26:59.425Z,95495.19
2023-08-06T17:29:28.044Z,95503.00
2023-08-06T17:31:56.517Z,95493.03
2023-08-06T17:34:24.246Z,95497.50
2023-08-06T17:36:51.891Z,95497.72
2023-08-06T17:39:19.562Z,95507.16
2023-08-06T17:41:48.735Z,95507.78
2023-08-06T17:44:16.344Z,95506.97
2023-08-06T17:46:43.931Z,95507.59
2023-08-06T17:49:11.501Z,95514.47
2023-08-06T17:51:39.022Z,95512.31
2023-08-06T17:54:06.592Z,95517.81
2023-08-06T17:56:34.218Z,95515.78
2023-08-06T17:59:03.339Z,95514.13
2023-08-06T18:01:30.942Z,95508.41
2023-08-06T18:03:58.621Z,95514.94
2023-08-06T18:06:26.210Z,95527.63
2023-08-06T18:08:53.739Z,95522.09
2023-08-06T18:11:21.386Z,95516.50
2023-08-06T18:13:48.989Z,95524.63
2023-08-06T18:16:17.940Z,95521.50
2023-08-06T18:18:45.530Z,95527.56
2023-08-06T18:21:13.164Z,95529.66
2023-08-06T18:23:40.702Z,95524.88
2023-08-06T18:26:08.288Z,95541.06
2023-08-06T18:28:36.164Z,95541.50
2023-08-06T18:31:03.779Z,95547.59
2023-08-06T18:33:32.886Z,95556.03
2023-08-06T18:36:00.444Z,95550.69
2023-08-06T18:38:28.054Z,95562.75
2023-08-06T18:40:58.568Z,95561.41
2023-08-06T18:43:26.314Z,95569.66
2023-08-06T18:45:53.944Z,95572.88
2023-08-06T18:48:21.639Z,95577.38
2023-08-06T18:50:50.530Z,95582.19
2023-08-06T18:53:18.752Z,95569.00
2023-08-06T18:55:50.332Z,95564.66
2023-08-06T18:58:18.238Z,95565.97
2023-08-06T19:00:46.510Z,95581.34
2023-08-06T19:03:14.148Z,95583.75
2023-08-06T19:05:43.148Z,95584.41
2023-08-06T19:08:12.664Z,95598.44
2023-08-06T19:10:40.328Z,95593.47
2023-08-06T19:13:13.245Z,95598.38
2023-08-06T19:15:47.236Z,95600.81
2023-08-06T19:18:14.852Z,95610.94
2023-08-06T19:20:43.784Z,95606.63
2023-08-06T19:23:16.646Z,95613.63
2023-08-06T19:25:45.104Z,95612.38
2023-08-06T19:28:12.870Z,95606.25
2023-08-06T19:30:41.582Z,95602.38
2023-08-06T19:33:10.911Z,95595.38
2023-08-06T19:35:47.289Z,95603.00
2023-08-06T19:38:16.402Z,95600.44
2023-08-06T19:40:44.014Z,95599.94
2023-08-06T19:43:12.725Z,95599.84
2023-08-06T19:45:40.741Z,95601.06
2023-08-06T19:48:08.892Z,95601.00
2023-08-06T19:50:36.474Z,95592.63
2023-08-06T19:53:04.027Z,95592.09
2023-08-06T19:55:33.097Z,95606.16
2023-08-06T19:58:00.655Z,95600.72
2023-08-06T20:00:28.291Z,95603.88
2023-08-06T20:02:55.974Z,95607.88
2023-08-06T20:05:23.598Z,95596.28
2023-08-06T20:07:51.132Z,95605.75
2023-08-06T20:10:18.652Z,95600.50
2023-08-06T20:12:47.718Z,95603.63
2023-08-06T20:15:15.484Z,95613.75
2023-08-06T20:17:43.067Z,95602.81
2023-08-06T20:20:11.816Z,95611.72
2023-08-06T20:22:39.594Z,95615.97
2023-08-06T20:25:07.733Z,95619.13
2023-08-06T20:27:35.356Z,95611.91
2023-08-06T20:30:04.489Z,95612.94
2023-08-06T20:32:32.048Z,95620.22
2023-08-06T20:34:59.765Z,95619.91
2023-08-06T20:37:27.386Z,95609.97
2023-08-06T20:39:54.928Z,95608.63
2023-08-06T20:42:22.520Z,95614.66
2023-08-06T20:44:50.289Z,95620.78
2023-08-06T20:47:19.185Z,95616.88
2023-08-06T20:49:47.112Z,95616.09
2023-08-06T20:52:18.802Z,95627.69
2023-08-06T20:54:46.392Z,95631.63
2023-08-06T20:57:13.968Z,95629.47
2023-08-06T20:59:41.573Z,95625.28
2023-08-06T21:02:09.113Z,95634.59
2023-08-06T21:04:38.048Z,95632.97
2023-08-06T21:07:06.815Z,95634.41
2023-08-06T21:09:34.350Z,95633.59
2023-08-06T21:12:01.862Z,95624.78
2023-08-06T21:14:29.413Z,95629.72
2023-08-06T21:16:56.949Z,95632.13
2023-08-06T21:19:24.527Z,95635.81
2023-08-06T21:21:53.807Z,95630.41
2023-08-06T21:24:21.683Z,95630.69
2023-08-06T21:26:49.225Z,95624.78
2023-08-06T21:29:16.892Z,95631.00
2023-08-06T21:31:44.465Z,95644.31
2023-08-06T21:34:12.012Z,95652.78
2023-08-06T21:36:39.635Z,95654.69
2023-08-06T21:39:08.574Z,95636.88
2023-08-06T21:41:36.435Z,95644.63
2023-08-06T21:44:04.249Z,95661.13
2023-08-06T21:46:31.916Z,95662.69
2023-08-06T21:48:59.659Z,95663.78
2023-08-06T21:51:27.643Z,95655.50
2023-08-06T21:53:55.688Z,95654.88
2023-08-06T21:56:25.665Z,95660.53
2023-08-06T21:58:54.041Z,95661.69
2023-08-06T22:01:21.601Z,95658.78
2023-08-06T22:03:49.152Z,95664.13
2023-08-06T22:06:16.903Z,95661.16
2023-08-06T22:08:45.426Z,95661.91
2023-08-06T22:11:13.228Z,95665.00
2023-08-06T22:13:42.450Z,95664.03
2023-08-06T22:16:10.245Z,95670.53
2023-08-06T22:18:38.046Z,95661.97
2023-08-06T22:21:05.649Z,95649.94
2023-08-06T22:23:33.328Z,95653.13
2023-08-06T22:26:00.968Z,95660.84
2023-08-06T22:28:29.083Z,95656.25
2023-08-06T22:30:58.154Z,95656.66
2023-08-06T22:33:30.320Z,95659.16
2023-08-06T22:35:57.998Z,95653.75
2023-08-06T22:38:25.752Z,95646.44
2023-08-06T22:40:53.371Z,95654.38
2023-08-06T22:43:26.984Z,95649.38
2023-08-06T22:45:54.553Z,95649.47
2023-08-06T22:48:24.562Z,95647.53
2023-08-06T22:50:52.115Z,95651.69
2023-08-06T22:53:19.650Z,95642.88
2023-08-06T22:56:07.553Z,95656.16
2023-08-06T22:58:35.519Z,95652.19
2023-08-06T23:01:03.920Z,95653.88
2023-08-06T23:03:33.127Z,95658.31
2023-08-06T23:06:00.903Z,95644.34
2023-08-06T23:08:28.525Z,95641.63
2023-08-06T23:10:56.865Z,95638.28
2023-08-06T23:13:24.425Z,95644.22
2023-08-06T23:15:52.015Z,95648.63
2023-08-06T23:18:19.600Z,95651.94
2023-08-06T23:20:48.514Z,95640.97
2023-08-06T23:23:16.056Z,95635.53
2023-08-06T23:25:43.614Z,95627.13
2023-08-06T23:28:11.150Z,95629.06
2023-08-06T23:30:38.741Z,95629.59
2023-08-06T23:33:06.323Z,95633.00
2023-08-06T23:35:33.956Z,95623.88
2023-08-06T23:38:02.852Z,95624.50
2023-08-06T23:40:30.451Z,95616.66
2023-08-06T23:42:58.083Z,95603.72
2023-08-06T23:45:25.677Z,95631.66
2023-08-06T23:47:53.335Z,95621.88
2023-08-06T23:50:20.877Z,95621.69
2023-08-06T23:52:48.423Z,95619.13
2023-08-06T23:55:17.431Z,95630.13
2023-08-06T23:57:44.999Z,95635.34
